sensor_id;sensor_type;location;lat;lon;timestamp;P1;durP1;ratioP1;P2;durP2;ratioP2
62535;SDS011;63050;47.514;18.920;2023-03-01T00:00:06;15.80;;;9.40;;
62535;SDS011;63050;47.514;18.920;2023-03-01T00:05:12;19.20;;;11.30;;
62535;SDS011;63050;47.514;18.920;2023-03-01T00:10:12;17.10;;;11.30;;
62535;SDS011;63050;47.514;18.920;2023-03-01T00:15:13;17.10;;;10.90;;
62535;SDS011;63050;47.514;18.920;2023-03-01T00:20:14;13.80;;;9.70;;
62535;SDS011;63050;47.514;18.920;2023-03-01T00:25:15;18.10;;;10.30;;
62535;SDS011;63050;47.514;18.920;2023-03-01T00:30:16;17.70;;;10.60;;
62535;SDS011;63050;47.514;18.920;2023-03-01T00:35:17;16.40;;;10.10;;
62535;SDS011;63050;47.514;18.920;2023-03-01T00:40:18;16.70;;;10.50;;
62535;SDS011;63050;47.514;18.920;2023-03-01T00:45:19;14.40;;;9.20;;
62535;SDS011;63050;47.514;18.920;2023-03-01T00:50:21;15.60;;;9.60;;
62535;SDS011;63050;47.514;18.920;2023-03-01T00:55:22;16.20;;;11.30;;
62535;SDS011;63050;47.514;18.920;2023-03-01T01:00:23;13.50;;;9.40;;
62535;SDS011;63050;47.514;18.920;2023-03-01T01:05:24;15.50;;;9.70;;
62535;SDS011;63050;47.514;18.920;2023-03-01T01:10:25;14.40;;;8.20;;
62535;SDS011;63050;47.514;18.920;2023-03-01T01:15:26;13.60;;;8.80;;
62535;SDS011;63050;47.514;18.920;2023-03-01T01:20:27;12.10;;;7.90;;
62535;SDS011;63050;47.514;18.920;2023-03-01T01:25:28;12.30;;;8.90;;
62535;SDS011;63050;47.514;18.920;2023-03-01T01:30:29;11.60;;;8.10;;
62535;SDS011;63050;47.514;18.920;2023-03-01T01:35:30;12.80;;;8.40;;
62535;SDS011;63050;47.514;18.920;2023-03-01T01:40:30;12.10;;;8.30;;
62535;SDS011;63050;47.514;18.920;2023-03-01T01:45:35;11.90;;;8.10;;
62535;SDS011;63050;47.514;18.920;2023-03-01T01:50:36;12.10;;;8.10;;
62535;SDS011;63050;47.514;18.920;2023-03-01T01:55:41;13.10;;;7.60;;
62535;SDS011;63050;47.514;18.920;2023-03-01T02:00:44;11.00;;;8.10;;
62535;SDS011;63050;47.514;18.920;2023-03-01T02:06:03;12.00;;;8.60;;
62535;SDS011;63050;47.514;18.920;2023-03-01T02:11:07;11.30;;;7.30;;
62535;SDS011;63050;47.514;18.920;2023-03-01T02:16:10;11.10;;;7.70;;
62535;SDS011;63050;47.514;18.920;2023-03-01T02:31:21;12.50;;;7.60;;
62535;SDS011;63050;47.514;18.920;2023-03-01T02:36:52;12.60;;;7.80;;
62535;SDS011;63050;47.514;18.920;2023-03-01T02:41:56;13.20;;;7.80;;
62535;SDS011;63050;47.514;18.920;2023-03-01T02:46:57;11.90;;;7.70;;
62535;SDS011;63050;47.514;18.920;2023-03-01T02:52:16;14.20;;;8.10;;
62535;SDS011;63050;47.514;18.920;2023-03-01T02:57:18;14.80;;;8.00;;
62535;SDS011;63050;47.514;18.920;2023-03-01T03:02:20;14.40;;;8.10;;
62535;SDS011;63050;47.514;18.920;2023-03-01T03:07:39;11.30;;;7.60;;
62535;SDS011;63050;47.514;18.920;2023-03-01T03:12:42;12.50;;;7.00;;
62535;SDS011;63050;47.514;18.920;2023-03-01T03:17:43;10.40;;;7.60;;
62535;SDS011;63050;47.514;18.920;2023-03-01T03:22:48;12.20;;;7.40;;
62535;SDS011;63050;47.514;18.920;2023-03-01T03:27:51;10.10;;;7.10;;
62535;SDS011;63050;47.514;18.920;2023-03-01T03:32:57;11.20;;;7.50;;
62535;SDS011;63050;47.514;18.920;2023-03-01T03:37:59;11.40;;;7.30;;
62535;SDS011;63050;47.514;18.920;2023-03-01T03:43:02;12.00;;;7.50;;
62535;SDS011;63050;47.514;18.920;2023-03-01T03:48:04;12.10;;;7.60;;
62535;SDS011;63050;47.514;18.920;2023-03-01T03:53:07;10.60;;;6.70;;
62535;SDS011;63050;47.514;18.920;2023-03-01T03:58:10;12.00;;;8.00;;
62535;SDS011;63050;47.514;18.920;2023-03-01T04:03:12;12.00;;;6.90;;
62535;SDS011;63050;47.514;18.920;2023-03-01T04:08:15;10.70;;;7.10;;
62535;SDS011;63050;47.514;18.920;2023-03-01T04:13:18;13.30;;;7.70;;
62535;SDS011;63050;47.514;18.920;2023-03-01T04:18:21;10.70;;;7.00;;
62535;SDS011;63050;47.514;18.920;2023-03-01T04:23:23;11.60;;;7.40;;
62535;SDS011;63050;47.514;18.920;2023-03-01T04:28:25;20.20;;;8.40;;
62535;SDS011;63050;47.514;18.920;2023-03-01T04:33:27;12.20;;;7.90;;
62535;SDS011;63050;47.514;18.920;2023-03-01T04:38:28;12.80;;;7.50;;
62535;SDS011;63050;47.514;18.920;2023-03-01T04:43:29;12.30;;;7.60;;
62535;SDS011;63050;47.514;18.920;2023-03-01T04:48:30;13.40;;;7.40;;
62535;SDS011;63050;47.514;18.920;2023-03-01T04:53:32;12.80;;;7.60;;
62535;SDS011;63050;47.514;18.920;2023-03-01T04:58:33;15.60;;;8.40;;
62535;SDS011;63050;47.514;18.920;2023-03-01T05:03:34;13.20;;;8.70;;
62535;SDS011;63050;47.514;18.920;2023-03-01T05:08:34;11.60;;;7.70;;
62535;SDS011;63050;47.514;18.920;2023-03-01T05:13:38;14.30;;;7.60;;
62535;SDS011;63050;47.514;18.920;2023-03-01T05:18:39;13.00;;;7.50;;
62535;SDS011;63050;47.514;18.920;2023-03-01T05:23:41;11.90;;;7.90;;
62535;SDS011;63050;47.514;18.920;2023-03-01T05:28:42;14.20;;;7.90;;
62535;SDS011;63050;47.514;18.920;2023-03-01T05:33:44;17.50;;;7.70;;
62535;SDS011;63050;47.514;18.920;2023-03-01T05:38:45;12.00;;;7.20;;
62535;SDS011;63050;47.514;18.920;2023-03-01T05:43:46;12.30;;;7.30;;
62535;SDS011;63050;47.514;18.920;2023-03-01T05:48:47;13.20;;;8.10;;
62535;SDS011;63050;47.514;18.920;2023-03-01T05:53:48;13.50;;;8.00;;
62535;SDS011;63050;47.514;18.920;2023-03-01T05:58:49;11.50;;;8.10;;
62535;SDS011;63050;47.514;18.920;2023-03-01T06:03:50;9.80;;;7.10;;
62535;SDS011;63050;47.514;18.920;2023-03-01T06:08:51;14.90;;;8.60;;
62535;SDS011;63050;47.514;18.920;2023-03-01T06:13:53;14.70;;;7.70;;
62535;SDS011;63050;47.514;18.920;2023-03-01T06:18:54;12.20;;;8.50;;
62535;SDS011;63050;47.514;18.920;2023-03-01T06:23:55;13.20;;;8.60;;
62535;SDS011;63050;47.514;18.920;2023-03-01T06:28:56;14.10;;;8.10;;
62535;SDS011;63050;47.514;18.920;2023-03-01T06:33:56;11.60;;;7.30;;
62535;SDS011;63050;47.514;18.920;2023-03-01T06:38:57;13.80;;;7.40;;
62535;SDS011;63050;47.514;18.920;2023-03-01T06:43:59;12.00;;;8.10;;
62535;SDS011;63050;47.514;18.920;2023-03-01T06:49:00;11.90;;;7.20;;
62535;SDS011;63050;47.514;18.920;2023-03-01T06:54:00;11.80;;;7.40;;
62535;SDS011;63050;47.514;18.920;2023-03-01T06:59:01;10.60;;;7.50;;
62535;SDS011;63050;47.514;18.920;2023-03-01T07:04:03;13.00;;;6.90;;
62535;SDS011;63050;47.514;18.920;2023-03-01T07:09:03;11.30;;;7.80;;
62535;SDS011;63050;47.514;18.920;2023-03-01T07:14:05;13.70;;;7.60;;
62535;SDS011;63050;47.514;18.920;2023-03-01T07:19:07;12.50;;;8.30;;
62535;SDS011;63050;47.514;18.920;2023-03-01T07:24:08;13.20;;;7.80;;
62535;SDS011;63050;47.514;18.920;2023-03-01T07:29:09;13.30;;;7.60;;
62535;SDS011;63050;47.514;18.920;2023-03-01T07:34:10;12.30;;;7.00;;
62535;SDS011;63050;47.514;18.920;2023-03-01T07:39:11;10.90;;;7.50;;
62535;SDS011;63050;47.514;18.920;2023-03-01T07:44:12;9.00;;;7.00;;
62535;SDS011;63050;47.514;18.920;2023-03-01T07:49:13;10.30;;;6.30;;
62535;SDS011;63050;47.514;18.920;2023-03-01T07:54:13;12.10;;;7.30;;
62535;SDS011;63050;47.514;18.920;2023-03-01T07:59:14;10.50;;;6.60;;
62535;SDS011;63050;47.514;18.920;2023-03-01T08:04:15;9.80;;;6.40;;
62535;SDS011;63050;47.514;18.920;2023-03-01T08:09:16;12.40;;;7.20;;
62535;SDS011;63050;47.514;18.920;2023-03-01T08:14:17;12.50;;;6.50;;
62535;SDS011;63050;47.514;18.920;2023-03-01T08:19:18;13.70;;;7.20;;
62535;SDS011;63050;47.514;18.920;2023-03-01T08:24:19;11.40;;;7.10;;
62535;SDS011;63050;47.514;18.920;2023-03-01T08:29:20;9.80;;;7.40;;
62535;SDS011;63050;47.514;18.920;2023-03-01T08:34:21;11.20;;;7.90;;
62535;SDS011;63050;47.514;18.920;2023-03-01T08:39:22;9.80;;;6.90;;
62535;SDS011;63050;47.514;18.920;2023-03-01T08:44:23;8.90;;;6.10;;
62535;SDS011;63050;47.514;18.920;2023-03-01T08:49:25;9.00;;;6.40;;
62535;SDS011;63050;47.514;18.920;2023-03-01T08:54:25;7.90;;;6.10;;
62535;SDS011;63050;47.514;18.920;2023-03-01T08:59:26;8.70;;;6.20;;
62535;SDS011;63050;47.514;18.920;2023-03-01T09:04:29;8.00;;;5.70;;
62535;SDS011;63050;47.514;18.920;2023-03-01T09:09:29;10.70;;;5.70;;
62535;SDS011;63050;47.514;18.920;2023-03-01T09:14:30;8.80;;;5.90;;
62535;SDS011;63050;47.514;18.920;2023-03-01T09:19:31;8.80;;;6.00;;
62535;SDS011;63050;47.514;18.920;2023-03-01T09:24:32;10.90;;;5.50;;
62535;SDS011;63050;47.514;18.920;2023-03-01T09:29:34;8.60;;;5.40;;
62535;SDS011;63050;47.514;18.920;2023-03-01T09:34:38;8.50;;;6.50;;
62535;SDS011;63050;47.514;18.920;2023-03-01T09:39:59;9.30;;;6.90;;
62535;SDS011;63050;47.514;18.920;2023-03-01T09:45:01;9.10;;;6.80;;
62535;SDS011;63050;47.514;18.920;2023-03-01T09:50:06;9.20;;;7.40;;
62535;SDS011;63050;47.514;18.920;2023-03-01T09:55:20;9.10;;;6.70;;
62535;SDS011;63050;47.514;18.920;2023-03-01T10:10:47;9.90;;;7.10;;
62535;SDS011;63050;47.514;18.920;2023-03-01T10:15:55;13.40;;;10.10;;
62535;SDS011;63050;47.514;18.920;2023-03-01T10:20:59;14.90;;;8.00;;
62535;SDS011;63050;47.514;18.920;2023-03-01T10:31:14;11.80;;;9.40;;
62535;SDS011;63050;47.514;18.920;2023-03-01T10:36:16;11.20;;;8.50;;
62535;SDS011;63050;47.514;18.920;2023-03-01T10:41:17;12.50;;;8.00;;
62535;SDS011;63050;47.514;18.920;2023-03-01T10:46:26;9.50;;;7.30;;
62535;SDS011;63050;47.514;18.920;2023-03-01T10:51:45;11.70;;;8.50;;
62535;SDS011;63050;47.514;18.920;2023-03-01T10:56:48;12.50;;;9.20;;
62535;SDS011;63050;47.514;18.920;2023-03-01T11:02:01;11.90;;;9.10;;
62535;SDS011;63050;47.514;18.920;2023-03-01T11:07:08;14.70;;;8.40;;
62535;SDS011;63050;47.514;18.920;2023-03-01T11:12:15;9.90;;;7.40;;
62535;SDS011;63050;47.514;18.920;2023-03-01T11:17:18;10.70;;;6.70;;
62535;SDS011;63050;47.514;18.920;2023-03-01T11:22:31;12.00;;;7.90;;
62535;SDS011;63050;47.514;18.920;2023-03-01T11:27:38;9.40;;;7.80;;
62535;SDS011;63050;47.514;18.920;2023-03-01T11:38:15;9.10;;;6.00;;
62535;SDS011;63050;47.514;18.920;2023-03-01T11:54:01;9.40;;;7.40;;
62535;SDS011;63050;47.514;18.920;2023-03-01T12:05:08;8.60;;;6.70;;
62535;SDS011;63050;47.514;18.920;2023-03-01T12:10:21;10.50;;;7.50;;
62535;SDS011;63050;47.514;18.920;2023-03-01T12:15:33;14.90;;;8.20;;
62535;SDS011;63050;47.514;18.920;2023-03-01T12:25:57;10.70;;;7.40;;
62535;SDS011;63050;47.514;18.920;2023-03-01T12:31:10;10.40;;;7.20;;
62535;SDS011;63050;47.514;18.920;2023-03-01T12:36:54;10.20;;;7.00;;
62535;SDS011;63050;47.514;18.920;2023-03-01T12:41:43;11.30;;;8.80;;
62535;SDS011;63050;47.514;18.920;2023-03-01T12:52:13;10.80;;;6.60;;
62535;SDS011;63050;47.514;18.920;2023-03-01T12:57:21;9.50;;;7.20;;
62535;SDS011;63050;47.514;18.920;2023-03-01T13:02:39;12.00;;;7.10;;
62535;SDS011;63050;47.514;18.920;2023-03-01T13:13:28;10.80;;;6.90;;
62535;SDS011;63050;47.514;18.920;2023-03-01T13:18:30;11.60;;;6.00;;
62535;SDS011;63050;47.514;18.920;2023-03-01T13:23:33;9.90;;;8.80;;
62535;SDS011;63050;47.514;18.920;2023-03-01T13:33:52;9.40;;;6.00;;
62535;SDS011;63050;47.514;18.920;2023-03-01T13:43:55;8.10;;;6.10;;
62535;SDS011;63050;47.514;18.920;2023-03-01T13:48:56;11.70;;;7.80;;
62535;SDS011;63050;47.514;18.920;2023-03-01T13:53:57;10.00;;;5.70;;
62535;SDS011;63050;47.514;18.920;2023-03-01T13:59:00;10.30;;;5.60;;
62535;SDS011;63050;47.514;18.920;2023-03-01T14:04:03;10.40;;;5.90;;
62535;SDS011;63050;47.514;18.920;2023-03-01T14:09:26;9.70;;;6.10;;
62535;SDS011;63050;47.514;18.920;2023-03-01T14:20:12;8.50;;;5.00;;
62535;SDS011;63050;47.514;18.920;2023-03-01T14:25:26;10.30;;;4.90;;
62535;SDS011;63050;47.514;18.920;2023-03-01T14:30:37;7.70;;;4.70;;
62535;SDS011;63050;47.514;18.920;2023-03-01T14:35:41;6.70;;;3.70;;
62535;SDS011;63050;47.514;18.920;2023-03-01T14:40:42;11.90;;;4.20;;
62535;SDS011;63050;47.514;18.920;2023-03-01T14:45:46;8.80;;;4.20;;
62535;SDS011;63050;47.514;18.920;2023-03-01T14:55:50;6.30;;;3.10;;
62535;SDS011;63050;47.514;18.920;2023-03-01T15:00:54;12.50;;;4.20;;
62535;SDS011;63050;47.514;18.920;2023-03-01T15:06:03;14.40;;;4.50;;
62535;SDS011;63050;47.514;18.920;2023-03-01T15:11:16;7.70;;;3.90;;
62535;SDS011;63050;47.514;18.920;2023-03-01T15:16:23;6.40;;;3.90;;
62535;SDS011;63050;47.514;18.920;2023-03-01T15:26:33;10.40;;;5.00;;
62535;SDS011;63050;47.514;18.920;2023-03-01T15:31:37;8.70;;;4.40;;
62535;SDS011;63050;47.514;18.920;2023-03-01T15:36:40;8.80;;;5.20;;
62535;SDS011;63050;47.514;18.920;2023-03-01T15:41:47;5.10;;;3.30;;
62535;SDS011;63050;47.514;18.920;2023-03-01T15:46:49;6.80;;;4.20;;
62535;SDS011;63050;47.514;18.920;2023-03-01T15:51:50;9.40;;;5.50;;
62535;SDS011;63050;47.514;18.920;2023-03-01T15:56:52;11.50;;;4.70;;
62535;SDS011;63050;47.514;18.920;2023-03-01T16:01:53;7.30;;;3.80;;
62535;SDS011;63050;47.514;18.920;2023-03-01T16:06:54;7.20;;;4.20;;
62535;SDS011;63050;47.514;18.920;2023-03-01T16:11:55;13.30;;;4.00;;
62535;SDS011;63050;47.514;18.920;2023-03-01T16:16:56;17.30;;;5.90;;
62535;SDS011;63050;47.514;18.920;2023-03-01T16:21:57;24.30;;;6.40;;
62535;SDS011;63050;47.514;18.920;2023-03-01T16:26:58;17.30;;;6.40;;
62535;SDS011;63050;47.514;18.920;2023-03-01T16:32:02;12.20;;;4.90;;
62535;SDS011;63050;47.514;18.920;2023-03-01T16:37:03;13.50;;;4.30;;
62535;SDS011;63050;47.514;18.920;2023-03-01T16:42:04;17.90;;;5.30;;
62535;SDS011;63050;47.514;18.920;2023-03-01T16:47:05;16.60;;;5.30;;
62535;SDS011;63050;47.514;18.920;2023-03-01T16:52:06;16.00;;;5.30;;
62535;SDS011;63050;47.514;18.920;2023-03-01T16:57:08;12.90;;;4.60;;
62535;SDS011;63050;47.514;18.920;2023-03-01T17:02:12;8.10;;;4.20;;
62535;SDS011;63050;47.514;18.920;2023-03-01T17:12:16;7.60;;;5.20;;
62535;SDS011;63050;47.514;18.920;2023-03-01T17:17:17;17.40;;;5.10;;
62535;SDS011;63050;47.514;18.920;2023-03-01T17:22:18;16.50;;;6.00;;
62535;SDS011;63050;47.514;18.920;2023-03-01T17:27:19;26.50;;;7.90;;
62535;SDS011;63050;47.514;18.920;2023-03-01T17:32:20;23.20;;;7.20;;
62535;SDS011;63050;47.514;18.920;2023-03-01T17:37:22;38.30;;;9.70;;
62535;SDS011;63050;47.514;18.920;2023-03-01T17:42:23;12.80;;;5.50;;
62535;SDS011;63050;47.514;18.920;2023-03-01T17:47:27;8.80;;;5.00;;
62535;SDS011;63050;47.514;18.920;2023-03-01T17:52:28;11.00;;;4.50;;
62535;SDS011;63050;47.514;18.920;2023-03-01T17:57:29;19.70;;;7.20;;
62535;SDS011;63050;47.514;18.920;2023-03-01T18:02:30;19.10;;;7.00;;
62535;SDS011;63050;47.514;18.920;2023-03-01T18:07:32;14.30;;;6.90;;
62535;SDS011;63050;47.514;18.920;2023-03-01T18:12:33;8.60;;;5.30;;
62535;SDS011;63050;47.514;18.920;2023-03-01T18:17:36;7.90;;;4.50;;
62535;SDS011;63050;47.514;18.920;2023-03-01T18:22:38;9.50;;;5.50;;
62535;SDS011;63050;47.514;18.920;2023-03-01T18:27:39;11.20;;;5.30;;
62535;SDS011;63050;47.514;18.920;2023-03-01T18:32:40;8.80;;;4.60;;
62535;SDS011;63050;47.514;18.920;2023-03-01T18:37:44;7.20;;;4.60;;
62535;SDS011;63050;47.514;18.920;2023-03-01T18:42:45;6.90;;;4.40;;
62535;SDS011;63050;47.514;18.920;2023-03-01T18:47:47;11.70;;;5.50;;
62535;SDS011;63050;47.514;18.920;2023-03-01T18:52:50;19.60;;;5.70;;
62535;SDS011;63050;47.514;18.920;2023-03-01T18:57:53;9.60;;;6.10;;
62535;SDS011;63050;47.514;18.920;2023-03-01T19:02:54;18.40;;;5.70;;
62535;SDS011;63050;47.514;18.920;2023-03-01T19:07:57;9.50;;;4.60;;
62535;SDS011;63050;47.514;18.920;2023-03-01T19:13:00;11.70;;;5.40;;
62535;SDS011;63050;47.514;18.920;2023-03-01T19:18:01;12.60;;;5.50;;
62535;SDS011;63050;47.514;18.920;2023-03-01T19:23:05;11.70;;;5.80;;
62535;SDS011;63050;47.514;18.920;2023-03-01T19:28:06;10.80;;;4.80;;
62535;SDS011;63050;47.514;18.920;2023-03-01T19:33:08;12.70;;;6.50;;
62535;SDS011;63050;47.514;18.920;2023-03-01T19:38:10;10.80;;;5.70;;
62535;SDS011;63050;47.514;18.920;2023-03-01T19:43:12;6.50;;;5.10;;
62535;SDS011;63050;47.514;18.920;2023-03-01T19:48:13;9.60;;;5.90;;
62535;SDS011;63050;47.514;18.920;2023-03-01T19:53:15;8.00;;;4.90;;
62535;SDS011;63050;47.514;18.920;2023-03-01T19:58:16;9.60;;;6.10;;
62535;SDS011;63050;47.514;18.920;2023-03-01T20:03:18;17.00;;;8.40;;
62535;SDS011;63050;47.514;18.920;2023-03-01T20:08:19;16.60;;;7.70;;
62535;SDS011;63050;47.514;18.920;2023-03-01T20:13:20;20.50;;;10.40;;
62535;SDS011;63050;47.514;18.920;2023-03-01T20:18:22;15.50;;;7.60;;
62535;SDS011;63050;47.514;18.920;2023-03-01T20:23:26;13.50;;;5.80;;
62535;SDS011;63050;47.514;18.920;2023-03-01T20:28:28;8.80;;;5.90;;
62535;SDS011;63050;47.514;18.920;2023-03-01T20:33:29;13.70;;;6.40;;
62535;SDS011;63050;47.514;18.920;2023-03-01T20:38:30;13.30;;;7.90;;
62535;SDS011;63050;47.514;18.920;2023-03-01T20:43:33;14.00;;;7.40;;
62535;SDS011;63050;47.514;18.920;2023-03-01T20:48:34;14.20;;;7.60;;
62535;SDS011;63050;47.514;18.920;2023-03-01T20:53:36;9.20;;;5.80;;
62535;SDS011;63050;47.514;18.920;2023-03-01T20:58:37;10.50;;;5.70;;
62535;SDS011;63050;47.514;18.920;2023-03-01T21:03:39;9.40;;;5.90;;
62535;SDS011;63050;47.514;18.920;2023-03-01T21:08:40;11.20;;;6.30;;
62535;SDS011;63050;47.514;18.920;2023-03-01T21:13:41;11.70;;;6.50;;
62535;SDS011;63050;47.514;18.920;2023-03-01T21:18:44;24.50;;;10.40;;
62535;SDS011;63050;47.514;18.920;2023-03-01T21:23:45;16.90;;;8.80;;
62535;SDS011;63050;47.514;18.920;2023-03-01T21:28:47;18.30;;;8.00;;
62535;SDS011;63050;47.514;18.920;2023-03-01T21:33:54;19.40;;;8.60;;
62535;SDS011;63050;47.514;18.920;2023-03-01T21:38:57;15.60;;;8.10;;
62535;SDS011;63050;47.514;18.920;2023-03-01T21:43:59;19.10;;;8.30;;
62535;SDS011;63050;47.514;18.920;2023-03-01T21:49:02;20.30;;;9.80;;
62535;SDS011;63050;47.514;18.920;2023-03-01T21:54:04;21.70;;;10.00;;
62535;SDS011;63050;47.514;18.920;2023-03-01T21:59:06;19.20;;;8.90;;
62535;SDS011;63050;47.514;18.920;2023-03-01T22:04:10;18.20;;;9.10;;
62535;SDS011;63050;47.514;18.920;2023-03-01T22:09:16;24.00;;;11.10;;
62535;SDS011;63050;47.514;18.920;2023-03-01T22:19:20;12.70;;;5.70;;
62535;SDS011;63050;47.514;18.920;2023-03-01T22:24:22;8.50;;;5.20;;
62535;SDS011;63050;47.514;18.920;2023-03-01T22:29:25;12.50;;;5.20;;
62535;SDS011;63050;47.514;18.920;2023-03-01T22:34:28;12.80;;;5.90;;
62535;SDS011;63050;47.514;18.920;2023-03-01T22:39:30;11.70;;;6.20;;
62535;SDS011;63050;47.514;18.920;2023-03-01T22:44:31;12.70;;;7.00;;
62535;SDS011;63050;47.514;18.920;2023-03-01T22:49:32;13.40;;;7.00;;
62535;SDS011;63050;47.514;18.920;2023-03-01T22:54:33;9.90;;;7.00;;
62535;SDS011;63050;47.514;18.920;2023-03-01T22:59:34;12.80;;;5.90;;
62535;SDS011;63050;47.514;18.920;2023-03-01T23:04:34;11.00;;;6.40;;
62535;SDS011;63050;47.514;18.920;2023-03-01T23:09:35;13.70;;;6.70;;
62535;SDS011;63050;47.514;18.920;2023-03-01T23:14:36;9.50;;;5.10;;
62535;SDS011;63050;47.514;18.920;2023-03-01T23:19:38;9.50;;;5.90;;
62535;SDS011;63050;47.514;18.920;2023-03-01T23:24:39;10.10;;;6.00;;
62535;SDS011;63050;47.514;18.920;2023-03-01T23:29:40;7.60;;;5.20;;
62535;SDS011;63050;47.514;18.920;2023-03-01T23:34:42;9.60;;;5.40;;
62535;SDS011;63050;47.514;18.920;2023-03-01T23:39:43;8.90;;;5.40;;
62535;SDS011;63050;47.514;18.920;2023-03-01T23:44:44;8.60;;;5.20;;
62535;SDS011;63050;47.514;18.920;2023-03-01T23:49:44;10.00;;;5.40;;
62535;SDS011;63050;47.514;18.920;2023-03-01T23:54:45;10.90;;;5.40;;
62535;SDS011;63050;47.514;18.920;2023-03-01T23:59:46;10.60;;;6.20;;
